RJFY(METAR)
02/20 20:00
METAR RJFY 201100Z 27012KT 9999 FEW030 BKN120 11/05 Q1021 RMK 1CU030
7AC120 A3016=
戻る
トップページへ戻る
IMOC Co,.Ltd.